Time;durP1;ratioP1;P1;durP2;ratioP2;P2;SDS_P1;SDS_P2;PMS_P1;PMS_P2;Temp;Humidity;BMP_temperature;BMP_pressure;BME280_temperature;BME280_humidity;BME280_pressure;Samples;Min_cycle;Max_cycle;Signal;HPM_P1;HPM_P2
2022/01/23 00:00:55;;;;;;;;;53.75;40.50;;;;;8.42;60.19;103482.53;5062546;28;45415;-79
2022/01/23 00:03:20;;;;;;;;;57.00;43.00;;;;;8.43;60.46;103486.91;5062217;28;45485;-78
2022/01/23 00:05:49;;;;;;;;;57.25;43.75;;;;;8.44;60.54;103486.06;5062182;28;45494;-79
2022/01/23 00:08:19;;;;;;;;;49.00;40.75;;;;;8.44;59.76;103484.31;5062216;28;45287;-79
2022/01/23 00:10:45;;;;;;;;;55.00;40.25;;;;;8.46;59.94;103491.34;5049506;28;45447;-82
2022/01/23 00:13:21;;;;;;;;;52.75;39.25;;;;;8.49;60.29;103484.44;5061608;28;45692;-82
2022/01/23 00:18:31;;;;;;;;;53.50;40.25;;;;;8.49;59.80;103487.06;5062535;28;46024;-82
2022/01/23 00:20:57;;;;;;;;;55.75;42.50;;;;;8.48;60.60;103480.03;5062501;28;45511;-82
2022/01/23 00:23:34;;;;;;;;;51.25;40.00;;;;;8.51;60.82;103487.97;5062094;28;45173;-83
2022/01/23 00:31:30;;;;;;;;;56.25;43.25;;;;;8.50;60.75;103472.19;5062341;28;45446;-82
2022/01/23 00:33:56;;;;;;;;;50.50;41.75;;;;;8.51;60.32;103469.63;5060286;28;46160;-81
2022/01/23 00:36:22;;;;;;;;;55.50;44.50;;;;;8.50;60.22;103472.19;5061912;28;45958;-81
2022/01/23 00:38:48;;;;;;;;;50.25;36.75;;;;;8.49;60.73;103470.44;5061323;28;45545;-81
2022/01/23 00:41:14;;;;;;;;;55.00;43.25;;;;;8.49;60.75;103470.44;5061736;28;45423;-82
2022/01/23 00:43:42;;;;;;;;;55.50;44.75;;;;;8.49;60.40;103466.09;5061523;28;46771;-82
2022/01/23 00:46:22;;;;;;;;;55.00;41.50;;;;;8.52;60.89;103471.38;5061403;28;45407;-81
2022/01/23 00:51:30;;;;;;;;;52.50;42.00;;;;;8.46;60.66;103458.16;5062029;28;45580;-82
2022/01/23 00:53:58;;;;;;;;;57.25;43.25;;;;;8.48;61.14;103458.19;5061478;28;45350;-82
2022/01/23 00:56:24;;;;;;;;;57.50;43.00;;;;;8.47;60.51;103457.28;5061945;28;46298;-84
2022/01/23 00:58:49;;;;;;;;;53.00;41.00;;;;;8.49;60.71;103457.34;5054251;28;45421;-84
2022/01/23 01:01:15;;;;;;;;;56.50;45.25;;;;;8.47;60.44;103457.28;5056740;28;45441;-83
2022/01/23 01:03:41;;;;;;;;;59.50;45.00;;;;;8.46;60.45;103462.50;5055556;28;45536;-83
2022/01/23 01:06:07;;;;;;;;;52.75;39.00;;;;;8.43;60.66;103456.34;5061773;28;45378;-82
2022/01/23 01:08:33;;;;;;;;;55.75;40.75;;;;;8.43;60.52;103450.22;5061596;28;45239;-83
2022/01/23 01:11:34;;;;;;;;;50.50;41.50;;;;;8.43;60.59;103447.59;5062020;28;45243;-83
2022/01/23 01:30:23;;;;;;;;;49.75;40.50;;;;;8.32;60.23;103457.88;5055110;28;45640;-84
2022/01/23 01:35:26;;;;;;;;;55.25;42.50;;;;;8.35;60.64;103457.03;5061141;28;45209;-84
2022/01/23 01:37:52;;;;;;;;;53.50;41.75;;;;;8.31;60.42;103446.50;5061036;28;46135;-83
2022/01/23 01:40:18;;;;;;;;;54.00;42.00;;;;;8.31;60.40;103446.50;5060673;28;45492;-83
2022/01/23 01:42:45;;;;;;;;;50.00;38.25;;;;;8.27;60.50;103442.03;5061062;28;45441;-83
2022/01/23 01:45:11;;;;;;;;;52.75;41.00;;;;;8.26;60.33;103444.63;5060747;28;45667;-83
2022/01/23 01:47:36;;;;;;;;;55.75;41.00;;;;;8.22;60.63;103443.72;5060848;28;45582;-81
2022/01/23 01:50:03;;;;;;;;;53.50;42.50;;;;;8.19;60.53;103443.63;5055458;28;45409;-81
2022/01/23 01:52:28;;;;;;;;;55.75;41.00;;;;;8.20;61.03;103446.28;5056974;28;45247;-81
2022/01/23 01:55:01;;;;;;;;;54.75;41.00;;;;;8.25;60.53;103448.13;5060776;28;45270;-81
2022/01/23 01:57:38;;;;;;;;;52.00;41.00;;;;;8.22;60.65;103441.09;5060939;28;46148;-82
2022/01/23 02:02:38;;;;;;;;;53.00;40.50;;;;;8.25;61.12;103440.28;5060652;28;45797;-82
2022/01/23 02:08:26;;;;;;;;;54.25;40.25;;;;;8.28;60.88;103441.19;5060634;28;45840;-83
2022/01/23 02:10:58;;;;;;;;;49.50;39.50;;;;;8.22;60.86;103443.72;5060564;28;45429;-82
2022/01/23 02:13:30;;;;;;;;;47.50;34.00;;;;;8.17;61.04;103443.59;5056699;28;45307;-83
2022/01/23 02:50:57;;;;;;;;;46.50;33.50;;;;;8.13;60.57;103412.94;5058298;28;45299;-80
2022/01/23 02:55:55;;;;;;;;;36.50;32.25;;;;;8.17;60.72;103413.91;5060076;28;45278;-78
2022/01/23 02:58:24;;;;;;;;;41.50;34.75;;;;;8.14;60.81;103401.63;5058205;28;45564;-78
2022/01/23 03:03:27;;;;;;;;;46.00;35.00;;;;;8.10;60.69;103405.91;5059644;28;45791;-80
2022/01/23 03:06:23;;;;;;;;;45.25;34.75;;;;;8.09;60.42;103398.03;5059736;28;45313;-80
2022/01/23 03:25:10;;;;;;;;;38.25;30.50;;;;;7.97;60.39;103393.41;5058151;28;45808;-80
2022/01/23 03:30:27;;;;;;;;;34.00;26.25;;;;;7.94;60.39;103396.84;5042984;28;45335;-81
2022/01/23 03:32:53;;;;;;;;;41.00;32.75;;;;;7.94;60.36;103399.47;5055679;28;46266;-81
2022/01/23 03:35:21;;;;;;;;;35.00;31.00;;;;;7.90;60.15;103386.28;5059370;28;45497;-80
2022/01/23 03:37:48;;;;;;;;;33.75;29.50;;;;;7.91;60.32;103388.91;5057795;28;45330;-80
2022/01/23 03:40:14;;;;;;;;;46.00;34.75;;;;;7.91;60.56;103388.91;5059442;28;45413;-80
2022/01/23 03:42:43;;;;;;;;;47.50;36.25;;;;;7.88;60.84;103378.38;5058874;28;46346;-80
2022/01/23 03:47:53;;;;;;;;;42.25;35.25;;;;;7.87;60.67;103376.63;5058827;28;45343;-80
2022/01/23 03:50:18;;;;;;;;;37.25;33.00;;;;;7.88;61.05;103388.84;5059218;28;45296;-80
2022/01/23 03:52:43;;;;;;;;;38.75;30.25;;;;;7.90;61.11;103376.69;5058903;28;45557;-80
2022/01/23 03:55:09;;;;;;;;;48.00;32.50;;;;;7.92;61.23;103371.47;5059274;28;45265;-80
2022/01/23 03:57:35;;;;;;;;;39.50;30.50;;;;;7.97;60.98;103380.31;5059282;28;45331;-81
2022/01/23 04:00:00;;;;;;;;;42.50;35.00;;;;;7.95;60.22;103375.03;5048388;28;45501;-81
2022/01/23 04:02:25;;;;;;;;;38.25;28.25;;;;;7.90;60.97;103381.03;5058846;28;45464;-82
2022/01/23 04:04:51;;;;;;;;;39.75;32.75;;;;;7.90;60.91;103376.69;5058413;28;45401;-81
2022/01/23 04:07:23;;;;;;;;;47.50;32.25;;;;;7.94;60.82;103377.63;5059146;28;45334;-81
2022/01/23 04:09:50;;;;;;;;;46.75;34.00;;;;;7.93;60.73;103368.00;5058808;28;45342;-81
2022/01/23 04:12:43;;;;;;;;;42.50;35.25;;;;;7.95;61.06;103366.31;5058793;28;45565;-81
2022/01/23 05:01:40;;;;;;;;;39.75;33.00;;;;;7.79;60.68;103375.56;5060455;28;45169;-83
2022/01/23 05:06:37;;;;;;;;;48.25;37.25;;;;;7.78;60.71;103384.28;5061427;28;45961;-83
2022/01/23 05:09:04;;;;;;;;;46.00;32.75;;;;;7.81;61.31;103384.34;5061947;28;45275;-82
2022/01/23 05:11:30;;;;;;;;;51.25;35.25;;;;;7.82;61.12;103371.28;5061775;28;45215;-83
2022/01/23 05:13:55;;;;;;;;;45.50;33.00;;;;;7.87;61.05;103379.25;5060884;28;45468;-79
2022/01/23 05:16:21;;;;;;;;;39.25;33.75;;;;;7.86;60.74;103373.13;5049919;28;45345;-79
2022/01/23 05:18:46;;;;;;;;;44.00;33.00;;;;;7.89;61.48;103377.53;5061688;28;45261;-80
2022/01/23 05:23:40;;;;;;;;;39.25;32.25;;;;;7.88;60.45;103371.41;5061149;28;45501;-80
2022/01/23 05:26:05;;;;;;;;;39.25;32.50;;;;;7.90;61.32;103373.19;5061311;28;45381;-80
2022/01/23 05:28:31;;;;;;;;;38.50;32.50;;;;;7.91;60.64;103386.31;5060878;28;45500;-81
2022/01/23 05:30:56;;;;;;;;;46.00;32.75;;;;;7.87;60.86;103382.75;5060955;28;45310;-81
2022/01/23 05:33:22;;;;;;;;;41.50;33.75;;;;;7.84;60.85;103380.06;5060834;28;45385;-81
2022/01/23 05:35:47;;;;;;;;;50.25;33.75;;;;;7.85;60.61;103378.34;5060068;28;46214;-86
2022/01/23 05:38:12;;;;;;;;;40.00;32.00;;;;;7.84;61.40;103387.03;5061088;28;45398;-88
2022/01/23 05:40:39;;;;;;;;;37.25;34.00;;;;;7.83;61.12;103394.00;5058624;28;45502;-88
2022/01/23 05:43:05;;;;;;;;;31.00;24.25;;;;;7.85;61.61;103381.81;5059362;28;46309;-82
2022/01/23 05:45:30;;;;;;;;;31.00;22.50;;;;;7.87;60.92;103381.88;5060417;28;45428;-82
2022/01/23 05:47:55;;;;;;;;;33.50;26.75;;;;;7.87;61.02;103388.00;5060361;28;45173;-81
2022/01/23 05:50:21;;;;;;;;;33.50;27.75;;;;;7.86;60.98;103388.81;5061256;28;45209;-82
2022/01/23 05:52:46;;;;;;;;;31.50;26.00;;;;;7.86;61.00;103388.81;5061068;28;45207;-82
2022/01/23 05:55:13;;;;;;;;;31.75;26.00;;;;;7.88;60.98;103394.97;5060145;28;45317;-82
2022/01/23 05:57:39;;;;;;;;;32.25;26.75;;;;;7.87;60.39;103392.34;5061141;28;45334;-82
2022/01/23 06:00:05;;;;;;;;;32.75;23.25;;;;;7.84;60.43;103390.53;5060649;28;46045;-81
2022/01/23 06:02:30;;;;;;;;;32.75;23.75;;;;;7.84;60.62;103390.53;5060546;28;45416;-81
2022/01/23 06:04:56;;;;;;;;;30.75;25.75;;;;;7.85;60.45;103394.91;5058148;28;46296;-81
2022/01/23 06:07:21;;;;;;;;;20.75;16.75;;;;;7.82;60.65;103388.72;5059786;28;45594;-82
2022/01/23 06:09:46;;;;;;;;;29.50;22.50;;;;;7.81;60.50;103395.69;5060706;28;45440;-82
2022/01/23 06:12:12;;;;;;;;;24.25;19.50;;;;;7.79;60.33;103405.25;5060399;28;45470;-83
2022/01/23 06:14:37;;;;;;;;;23.00;18.75;;;;;7.75;60.47;103395.56;5059445;28;45352;-84
2022/01/23 06:17:03;;;;;;;;;24.50;19.75;;;;;7.72;60.35;103395.50;5058629;28;45233;-81
2022/01/23 06:19:28;;;;;;;;;19.25;18.00;;;;;7.71;60.68;103401.56;5060797;28;45226;-78
2022/01/23 06:21:53;;;;;;;;;34.50;25.50;;;;;7.70;60.67;103399.81;5053211;28;45327;-78
2022/01/23 06:24:25;;;;;;;;;24.50;20.00;;;;;7.71;60.28;103399.84;5060025;28;45328;-78
2022/01/23 06:26:53;;;;;;;;;23.75;19.75;;;;;7.69;59.93;103395.44;5060121;28;45674;-77
2022/01/23 06:29:19;;;;;;;;;25.25;21.25;;;;;7.69;59.73;103390.19;5060098;28;45463;-77
2022/01/23 06:31:49;;;;;;;;;28.25;21.25;;;;;7.64;59.65;103383.13;5059980;28;45791;-77
2022/01/23 06:34:16;;;;;;;;;25.50;21.00;;;;;7.65;60.34;103392.72;5059968;28;45426;-81
2022/01/23 06:36:42;;;;;;;;;21.75;19.25;;;;;7.63;60.50;103394.44;5060248;28;45532;-81
2022/01/23 06:39:10;;;;;;;;;17.75;16.50;;;;;7.66;60.35;103385.78;5059620;28;45226;-81
2022/01/23 06:41:36;;;;;;;;;24.00;19.50;;;;;7.70;60.90;103394.59;5059682;28;45142;-81
2022/01/23 06:44:03;;;;;;;;;21.50;17.25;;;;;7.72;60.35;103387.66;5059952;28;46814;-82
2022/01/23 06:46:28;;;;;;;;;24.50;21.50;;;;;7.69;60.69;103390.19;5059347;28;45456;-81
2022/01/23 06:48:54;;;;;;;;;23.00;20.75;;;;;7.70;60.73;103386.75;5059930;28;45416;-80
2022/01/23 06:51:19;;;;;;;;;22.00;16.00;;;;;7.73;60.60;103385.06;5059048;28;45360;-80
2022/01/23 06:53:45;;;;;;;;;22.50;17.25;;;;;7.72;60.41;103383.31;5060054;28;45588;-81
2022/01/23 06:56:10;;;;;;;;;22.00;15.00;;;;;7.70;60.20;103386.75;5059678;28;45278;-81
2022/01/23 06:58:37;;;;;;;;;22.75;18.25;;;;;7.69;60.42;103395.44;5059983;28;45462;-81
2022/01/23 07:01:04;;;;;;;;;19.75;15.50;;;;;7.69;60.33;103392.81;5059441;28;45467;-82
2022/01/23 07:03:30;;;;;;;;;24.50;21.00;;;;;7.74;60.87;103391.19;5058704;28;46192;-81
2022/01/23 07:05:55;;;;;;;;;23.00;19.00;;;;;7.78;60.82;103395.63;5058992;28;45264;-81
2022/01/23 07:08:20;;;;;;;;;15.75;14.00;;;;;7.77;60.75;103409.59;5059477;28;45429;-82
2022/01/23 07:10:46;;;;;;;;;25.25;16.50;;;;;7.80;60.68;103417.50;5059493;28;45256;-81
2022/01/23 07:13:11;;;;;;;;;23.75;19.00;;;;;7.79;60.70;103402.63;5059505;28;45308;-81
2022/01/23 07:15:36;;;;;;;;;22.75;16.25;;;;;7.77;60.81;103399.09;5059583;28;45309;-81
2022/01/23 07:18:02;;;;;;;;;26.25;19.50;;;;;7.80;60.95;103401.81;5059937;28;45276;-81
2022/01/23 07:20:27;;;;;;;;;23.75;18.00;;;;;7.78;60.52;103407.84;5058747;28;45467;-81
2022/01/23 07:22:54;;;;;;;;;28.50;22.00;;;;;7.74;60.68;103396.41;5059157;28;46489;-82
2022/01/23 07:25:19;;;;;;;;;25.50;20.25;;;;;7.76;60.46;103395.59;5058997;28;45515;-79
2022/01/23 07:27:51;;;;;;;;;27.25;19.00;;;;;7.76;60.50;103405.19;5058446;28;45314;-79
2022/01/23 07:30:31;;;;;;;;;19.50;15.50;;;;;7.78;61.13;103406.09;5058896;28;45575;-79
2022/01/23 07:32:57;;;;;;;;;20.25;15.50;;;;;7.78;60.00;103403.47;5051596;28;45376;-78
2022/01/23 07:35:22;;;;;;;;;19.25;14.50;;;;;7.78;60.21;103406.09;5059146;28;45438;-78
2022/01/23 07:37:48;;;;;;;;;21.75;17.50;;;;;7.78;60.88;103403.47;5059498;28;45270;-78
2022/01/23 07:40:13;;;;;;;;;24.00;18.00;;;;;7.77;59.94;103401.72;5059581;28;45286;-80
2022/01/23 07:42:39;;;;;;;;;21.00;19.00;;;;;7.77;60.06;103399.09;5059290;28;46535;-78
2022/01/23 07:45:06;;;;;;;;;20.50;15.25;;;;;7.81;60.80;103405.28;5058817;28;45165;-79
2022/01/23 07:47:31;;;;;;;;;24.25;18.00;;;;;7.81;60.34;103406.16;5059087;28;45224;-79
2022/01/23 07:49:57;;;;;;;;;27.50;20.75;;;;;7.81;60.73;103398.31;5059115;28;45272;-79
2022/01/23 07:52:22;;;;;;;;;25.50;17.50;;;;;7.81;60.06;103407.91;5059174;28;45591;-79
2022/01/23 07:54:48;;;;;;;;;22.00;15.75;;;;;7.82;60.53;103400.09;5058789;28;45377;-79
2022/01/23 07:57:14;;;;;;;;;24.50;18.25;;;;;7.79;59.82;103400.03;5059141;28;45447;-79
2022/01/23 07:59:39;;;;;;;;;18.25;16.00;;;;;7.81;60.57;103406.16;5061565;28;45432;-78
2022/01/23 08:02:04;;;;;;;;;23.25;20.00;;;;;7.80;60.07;103406.16;5062820;28;45355;-78
2022/01/23 08:04:30;;;;;;;;;18.25;15.25;;;;;7.78;60.12;103419.19;5062431;28;45341;-78
2022/01/23 08:07:11;;;;;;;;;21.75;17.75;;;;;7.76;60.14;103420.91;5062402;28;47050;-78
2022/01/23 08:09:37;;;;;;;;;23.50;16.75;;;;;7.70;60.35;103420.78;5062294;28;45356;-78
2022/01/23 08:12:03;;;;;;;;;23.00;18.50;;;;;7.69;60.62;103421.59;5062938;28;45295;-77
2022/01/23 08:14:28;;;;;;;;;19.25;17.25;;;;;7.70;60.39;103426.00;5061632;28;45843;-80
2022/01/23 08:16:54;;;;;;;;;25.00;20.75;;;;;7.72;59.86;103424.31;5061428;28;45444;-77
2022/01/23 08:19:19;;;;;;;;;20.75;16.75;;;;;7.68;59.82;103428.56;5062426;28;45292;-78
2022/01/23 08:21:45;;;;;;;;;22.50;16.75;;;;;7.65;59.79;103434.63;5062135;28;45307;-79
2022/01/23 08:24:11;;;;;;;;;20.50;16.00;;;;;7.65;60.02;103437.22;5061982;28;45319;-79
2022/01/23 08:26:37;;;;;;;;;19.00;16.75;;;;;7.58;60.05;103432.72;5061083;28;45417;-79
2022/01/23 08:29:03;;;;;;;;;21.00;17.50;;;;;7.57;60.18;103441.44;5061952;28;45405;-78
2022/01/23 08:31:28;;;;;;;;;23.75;17.50;;;;;7.54;59.50;103444.84;5055917;28;45409;-80
2022/01/23 08:33:54;;;;;;;;;18.25;16.00;;;;;7.53;60.61;103440.47;5059956;28;45446;-80
2022/01/23 08:36:19;;;;;;;;;16.75;14.50;;;;;7.53;60.03;103432.59;5050630;28;45601;-80
2022/01/23 08:38:45;;;;;;;;;17.00;15.25;;;;;7.53;60.33;103434.38;5058701;28;45615;-78
2022/01/23 08:43:55;;;;;;;;;22.00;16.75;;;;;7.58;60.43;103451.03;5057894;28;45946;-82
2022/01/23 08:46:20;;;;;;;;;14.75;14.00;;;;;7.63;60.63;103443.31;5051261;28;45396;-81
2022/01/23 08:48:45;;;;;;;;;22.25;17.50;;;;;7.63;60.17;103441.56;5053000;28;45414;-79
2022/01/23 08:51:12;;;;;;;;;26.00;19.25;;;;;7.65;60.24;103441.63;5059759;28;45965;-82
2022/01/23 08:53:38;;;;;;;;;19.00;15.00;;;;;7.67;60.26;103437.28;5050344;28;45382;-82
2022/01/23 08:56:05;;;;;;;;;16.50;13.50;;;;;7.70;60.88;103436.47;5052168;28;45458;-80
2022/01/23 08:58:30;;;;;;;;;22.50;19.75;;;;;7.71;60.56;103438.22;5057382;28;45508;-77
2022/01/23 09:00:56;;;;;;;;;18.25;13.75;;;;;7.73;60.40;103439.19;5061572;28;45617;-77
2022/01/23 09:03:21;;;;;;;;;24.50;16.00;;;;;7.72;60.38;103440.91;5061422;28;45271;-77
2022/01/23 09:05:46;;;;;;;;;22.00;14.75;;;;;7.74;60.67;103443.53;5058655;28;45457;-77
2022/01/23 09:08:12;;;;;;;;;21.25;16.75;;;;;7.73;60.44;103432.19;5057961;28;45477;-78
2022/01/23 09:10:51;;;;;;;;;19.50;16.25;;;;;7.77;60.48;103448.84;5058918;28;45473;-79
2022/01/23 09:13:31;;;;;;;;;20.50;18.00;;;;;7.76;60.45;103447.06;5053048;28;45426;-78
2022/01/23 09:15:57;;;;;;;;;23.25;15.75;;;;;7.73;59.94;103442.66;5056799;28;45493;-78
2022/01/23 09:18:22;;;;;;;;;16.25;15.00;;;;;7.69;60.25;103429.47;5050908;28;45427;-78
2022/01/23 09:20:48;;;;;;;;;19.75;16.00;;;;;7.71;60.72;103441.75;5056386;28;46242;-78
2022/01/23 09:23:13;;;;;;;;;15.75;15.25;;;;;7.73;60.69;103440.03;5050468;28;45418;-78
2022/01/23 09:25:38;;;;;;;;;18.00;15.00;;;;;7.73;60.87;103439.19;5057239;28;45398;-78
2022/01/23 09:28:05;;;;;;;;;21.00;17.75;;;;;7.75;60.60;103448.81;5055356;28;46187;-77
2022/01/23 09:30:35;;;;;;;;;19.25;19.25;;;;;7.78;60.57;103450.59;5047702;28;45291;-81
2022/01/23 09:33:03;;;;;;;;;16.00;15.00;;;;;7.77;60.48;103448.84;5052575;28;45891;-81
2022/01/23 09:35:28;;;;;;;;;20.50;16.50;;;;;7.78;60.32;103455.84;5049033;28;45466;-82
2022/01/23 09:37:53;;;;;;;;;23.00;14.25;;;;;7.79;60.11;103462.88;5054922;28;45563;-81
2022/01/23 09:40:19;;;;;;;;;20.00;16.00;;;;;7.79;60.20;103454.13;5054563;28;46390;-80
2022/01/23 09:42:50;;;;;;;;;23.25;17.25;;;;;7.78;59.80;103455.00;5053361;28;45537;-81
2022/01/23 09:45:18;;;;;;;;;20.50;16.00;;;;;7.77;60.46;103459.34;5047156;28;45378;-84
2022/01/23 09:47:44;;;;;;;;;19.00;16.00;;;;;7.79;60.19;103455.00;5051233;28;45479;-81
2022/01/23 09:50:13;;;;;;;;;20.50;16.75;;;;;7.80;59.76;103453.28;5057955;28;45259;-81
2022/01/23 09:52:39;;;;;;;;;17.50;15.00;;;;;7.79;59.99;103452.41;5049001;28;45367;-81
2022/01/23 09:55:10;;;;;;;;;16.00;14.25;;;;;7.79;59.91;103439.31;5053770;28;45478;-78
2022/01/23 09:58:02;;;;;;;;;19.50;14.00;;;;;7.83;59.71;103448.09;5052652;28;45247;-78
2022/01/23 10:00:29;;;;;;;;;24.00;17.50;;;;;7.81;59.85;103447.19;5057058;28;45399;-78
2022/01/23 10:02:56;;;;;;;;;17.50;14.00;;;;;7.80;60.47;103450.66;5058399;28;45711;-77
2022/01/23 10:05:22;;;;;;;;;19.25;14.50;;;;;7.82;59.94;103462.06;5055964;28;45193;-77
2022/01/23 10:07:48;;;;;;;;;22.75;18.00;;;;;7.81;60.37;103450.69;5059338;28;45558;-77
2022/01/23 10:10:20;;;;;;;;;17.25;14.50;;;;;7.82;60.48;103452.47;5050171;28;45432;-77
2022/01/23 10:12:50;;;;;;;;;14.25;13.25;;;;;7.83;60.32;103448.09;5057253;28;45280;-77
2022/01/23 10:15:17;;;;;;;;;13.25;10.00;;;;;7.85;60.04;103455.13;5049302;28;45426;-79
2022/01/23 10:17:42;;;;;;;;;15.00;12.25;;;;;7.84;60.25;103466.47;5055101;28;45479;-78
2022/01/23 10:20:09;;;;;;;;;15.75;11.50;;;;;7.85;60.50;103468.22;5054988;28;46666;-78
2022/01/23 10:22:36;;;;;;;;;11.50;11.25;;;;;7.86;60.59;103459.53;5060375;28;45311;-79
2022/01/23 10:25:15;;;;;;;;;20.25;15.50;;;;;7.89;60.49;103456.09;5060117;28;45255;-79
2022/01/23 10:27:53;;;;;;;;;14.75;13.00;;;;;7.94;60.63;103457.09;5057203;28;45528;-79
2022/01/23 10:30:24;;;;;;;;;13.75;12.50;;;;;7.94;60.47;103462.34;5059483;28;45323;-79
2022/01/23 10:33:18;;;;;;;;;14.00;13.00;;;;;7.97;60.21;103456.28;5060287;28;45346;-79
2022/01/23 10:36:05;;;;;;;;;11.50;11.25;;;;;8.01;59.99;103460.72;5058456;28;45318;-79
2022/01/23 10:38:54;;;;;;;;;18.25;14.25;;;;;7.95;60.37;103448.38;5060900;28;45441;-81
2022/01/23 10:49:55;;;;;;;;;14.25;13.25;;;;;8.01;59.08;103451.97;5054220;28;45201;-80
2022/01/23 10:52:40;;;;;;;;;12.00;10.50;;;;;8.03;59.44;103450.28;5058441;28;46283;-80
2022/01/23 10:55:12;;;;;;;;;16.75;13.00;;;;;8.02;59.72;103445.91;5056733;28;45766;-79
2022/01/23 10:57:40;;;;;;;;;13.00;11.50;;;;;7.94;59.03;103444.00;5058463;28;45311;-80
2022/01/23 11:00:10;;;;;;;;;16.00;12.75;;;;;7.88;59.48;103442.13;5059740;28;45456;-80
2022/01/23 11:02:41;;;;;;;;;17.00;12.00;;;;;7.91;59.65;103451.78;5058684;28;45470;-80
2022/01/23 11:05:10;;;;;;;;;16.50;12.25;;;;;7.93;59.82;103436.09;5051339;28;45684;-80
2022/01/23 11:07:39;;;;;;;;;16.25;13.50;;;;;7.94;59.27;103437.88;5059506;28;45768;-81
2022/01/23 11:10:15;;;;;;;;;12.50;11.50;;;;;7.98;60.01;103443.22;5059978;28;45295;-80
2022/01/23 11:17:22;;;;;;;;;17.25;15.00;;;;;8.02;60.30;103436.31;5058074;28;45674;-80
2022/01/23 11:18:33;;;;;;;;;53.75;39.25;;;;;8.02;59.59;103438.03;5057510;28;45427;-80
2022/01/23 11:20:58;;;;;;;;;84.75;68.25;;;;;8.02;59.89;103417.97;5047222;28;45529;-80
2022/01/23 11:23:29;;;;;;;;;225.25;190.50;;;;;8.04;59.61;103418.88;5052037;28;46355;-80
2022/01/23 11:25:54;;;;;;;;;77.25;59.00;;;;;8.09;60.08;103417.25;5049677;28;45300;-81
2022/01/23 11:28:26;;;;;;;;;46.67;34.33;;;;;8.08;60.00;103418.09;5053397;28;45469;-81
2022/01/23 11:30:52;;;;;;;;;24.75;21.25;;;;;8.12;59.86;103415.53;5054875;28;45666;-81
2022/01/23 11:33:18;;;;;;;;;18.25;15.75;;;;;8.10;60.17;103411.13;5055765;28;45864;-80
2022/01/23 11:35:45;;;;;;;;;17.25;15.00;;;;;8.15;59.93;103405.13;5052819;28;45533;-80
2022/01/23 11:38:16;;;;;;;;;17.00;14.25;;;;;8.14;60.17;103406.88;5052116;28;45417;-81
2022/01/23 11:54:37;;;;;;;;;13.50;12.00;;;;;8.14;58.91;103390.25;5047078;28;47008;-80
2022/01/23 11:57:03;;;;;;;;;13.00;12.00;;;;;8.15;59.17;103394.66;5056022;28;46030;-80
2022/01/23 11:59:39;;;;;;;;;13.50;10.00;;;;;8.14;59.14;103385.00;5056324;28;45281;-82
2022/01/23 12:02:15;;;;;;;;;17.00;15.00;;;;;8.17;58.77;103383.31;5049769;28;45700;-81
2022/01/23 12:05:17;;;;;;;;;17.00;15.50;;;;;8.17;58.67;103375.47;5057857;28;46365;-81
2022/01/23 12:07:45;;;;;;;;;19.75;14.00;;;;;8.19;59.13;103380.75;5065520;27;45689;-81
2022/01/23 12:12:50;;;;;;;;;17.50;13.00;;;;;8.20;58.94;103364.16;5060528;28;45394;-81
2022/01/23 12:18:22;;;;;;;;;14.75;14.75;;;;;8.26;59.17;103364.28;5055669;28;45768;-81
2022/01/23 12:20:49;;;;;;;;;22.50;17.50;;;;;8.27;59.10;103359.94;5058793;28;45403;-81
2022/01/23 12:23:16;;;;;;;;;20.75;17.75;;;;;8.30;58.68;103360.88;5056673;28;45479;-79
2022/01/23 12:26:06;;;;;;;;;17.00;15.00;;;;;8.30;59.02;103354.75;5058747;28;45854;-81
2022/01/23 12:28:43;;;;;;;;;18.50;15.75;;;;;8.30;59.10;103344.25;5044833;28;45429;-81
2022/01/23 12:31:14;;;;;;;;;18.00;15.50;;;;;8.35;59.25;103346.97;5057208;28;45459;-80
2022/01/23 12:33:40;;;;;;;;;24.00;17.75;;;;;8.35;58.75;103340.00;5055861;28;45578;-80
2022/01/23 12:36:14;;;;;;;;;23.25;16.25;;;;;8.33;58.75;103334.72;5056579;28;45578;-81
2022/01/23 12:38:44;;;;;;;;;24.50;16.25;;;;;8.33;58.84;103333.84;5051724;28;45256;-81
2022/01/23 12:41:17;;;;;;;;;17.25;13.50;;;;;8.34;58.68;103322.53;5053456;28;45224;-81
2022/01/23 12:43:43;;;;;;;;;20.25;16.50;;;;;8.30;58.56;103323.28;5057335;28;45434;-81
2022/01/23 12:46:10;;;;;;;;;19.00;16.50;;;;;8.28;58.83;103315.41;5056103;28;46199;-80
2022/01/23 12:48:39;;;;;;;;;17.25;16.75;;;;;8.31;58.69;103307.63;5055248;28;45303;-81
2022/01/23 12:51:13;;;;;;;;;26.00;17.00;;;;;8.32;59.15;103316.38;5049759;28;45777;-81
2022/01/23 12:53:42;;;;;;;;;24.00;19.00;;;;;8.30;58.53;103307.56;5059793;28;46932;-81
2022/01/23 12:56:14;;;;;;;;;22.75;18.25;;;;;8.27;58.59;103302.28;5055694;28;45605;-81
2022/01/23 12:58:41;;;;;;;;;20.00;17.50;;;;;8.28;58.95;103301.44;5056674;28;45401;-81
2022/01/23 13:01:16;;;;;;;;;20.25;17.00;;;;;8.26;58.47;103298.78;5073032;27;45332;-81
2022/01/23 13:03:49;;;;;;;;;20.25;16.50;;;;;8.28;58.58;103293.56;5054505;28;45481;-81
2022/01/23 13:06:14;;;;;;;;;26.50;18.50;;;;;8.26;58.80;103290.03;5052425;28;46551;-80
2022/01/23 13:08:48;;;;;;;;;26.00;16.50;;;;;8.27;58.57;103282.19;5057803;28;45394;-81
2022/01/23 13:14:00;;;;;;;;;20.00;17.50;;;;;8.30;58.96;103278.75;5059977;28;45580;-81
2022/01/23 13:16:47;;;;;;;;;20.00;18.25;;;;;8.32;58.67;103280.53;5061673;28;46441;-81
2022/01/23 13:19:47;;;;;;;;;19.50;17.75;;;;;8.30;58.55;103277.00;5058133;28;45785;-81
2022/01/23 13:28:18;;;;;;;;;23.25;20.00;;;;;8.35;59.14;103268.34;5061369;27;45426;-81
2022/01/23 13:30:22;;;;;;;;;24.00;19.50;;;;;8.36;59.03;103257.00;5069585;28;45282;-81
2022/01/23 13:32:50;;;;;;;;;19.25;17.75;;;;;8.38;58.76;103268.41;5061022;28;45343;-81
2022/01/23 13:35:18;;;;;;;;;29.25;23.25;;;;;8.40;59.04;103256.19;5066482;28;45189;-81
2022/01/23 13:37:55;;;;;;;;;27.50;20.25;;;;;8.40;58.59;103250.97;5044538;28;45424;-81
2022/01/23 13:40:28;;;;;;;;;22.50;18.00;;;;;8.44;59.15;103252.81;5055196;28;45530;-81
2022/01/23 13:59:56;;;;;;;;;32.00;27.75;;;;;8.42;58.66;103223.91;5050294;28;45358;-80
2022/01/23 14:02:35;;;;;;;;;23.00;20.50;;;;;8.45;58.40;103228.34;5060762;28;45437;-81
2022/01/23 14:05:08;;;;;;;;;32.00;25.25;;;;;8.45;58.65;103223.09;5060766;28;45620;-80
2022/01/23 14:07:35;;;;;;;;;29.25;25.75;;;;;8.40;58.61;103214.28;5060710;28;45270;-80
2022/01/23 14:10:16;;;;;;;;;26.00;19.25;;;;;8.42;58.27;103207.34;5060615;28;45442;-81
2022/01/23 14:12:43;;;;;;;;;25.75;20.75;;;;;8.44;58.71;103216.09;5060417;28;45435;-81
2022/01/23 14:15:21;;;;;;;;;26.50;23.50;;;;;8.44;58.16;103206.47;5060479;28;45244;-81
2022/01/23 14:18:10;;;;;;;;;26.25;21.50;;;;;8.45;58.12;103204.75;5047557;28;45267;-81
2022/01/23 14:20:40;;;;;;;;;27.25;21.50;;;;;8.44;58.16;103203.84;5060003;28;46311;-81
2022/01/23 14:23:13;;;;;;;;;22.50;22.50;;;;;8.49;58.33;103206.56;5059920;28;45290;-81
2022/01/23 14:25:47;;;;;;;;;25.25;21.00;;;;;8.46;58.12;103193.41;5054841;28;45173;-81
2022/01/23 14:28:15;;;;;;;;;24.25;21.75;;;;;8.48;58.36;103199.56;5059931;28;45355;-80
2022/01/23 14:30:56;;;;;;;;;28.75;23.75;;;;;8.47;58.03;103195.16;5060336;28;45321;-80
2022/01/23 14:33:27;;;;;;;;;29.50;24.50;;;;;8.49;58.40;103198.72;5060452;28;45346;-80
2022/01/23 14:35:53;;;;;;;;;27.00;20.50;;;;;8.49;58.29;103190.84;5060089;28;45347;-80
2022/01/23 14:38:28;;;;;;;;;27.50;22.75;;;;;8.47;57.84;103189.91;5060360;28;45608;-80
2022/01/23 14:41:00;;;;;;;;;23.50;20.75;;;;;8.49;57.76;103188.22;5059270;28;46063;-80
2022/01/23 14:43:38;;;;;;;;;30.25;21.50;;;;;8.50;58.12;103187.34;5059997;28;45152;-80
2022/01/23 14:46:06;;;;;;;;;34.00;26.00;;;;;8.49;58.33;103188.22;5059950;28;45591;-80
2022/01/23 14:48:37;;;;;;;;;25.75;19.25;;;;;8.50;57.97;103192.59;5060317;28;45328;-80
2022/01/23 14:51:04;;;;;;;;;23.25;20.25;;;;;8.50;58.15;103181.22;5058737;28;46576;-80
2022/01/23 14:53:32;;;;;;;;;23.50;19.75;;;;;8.53;57.85;103184.78;5059976;28;45299;-80